Time;durP1;ratioP1;P1;durP2;ratioP2;P2;SDS_P1;SDS_P2;PMS_P1;PMS_P2;Temp;Humidity;BMP_temperature;BMP_pressure;BME280_temperature;BME280_humidity;BME280_pressure;Samples;Min_cycle;Max_cycle;Signal;HPM_P1;HPM_P2
2021/12/01 11:22:39;;;;;;;3.38;1.02;;;19.50;99.90;;;;;;5124626;27;1294539;-68
2021/12/01 11:25:22;;;;;;;3.53;0.95;;;19.30;99.90;;;;;;5072373;28;20154;-69
2021/12/01 11:27:48;;;;;;;3.35;1.05;;;;;;;;;;5071664;28;20078;-71
2021/12/01 11:30:14;;;;;;;2.30;0.90;;;;;;;;;;5109045;27;20046;-70
2021/12/01 11:32:40;;;;;;;4.90;1.08;;;;;;;;;;5152639;27;20073;-72
2021/12/01 11:35:06;;;;;;;4.18;0.90;;;21.20;99.90;;;;;;5126074;27;20039;-73
2021/12/01 11:37:33;;;;;;;4.15;1.00;;;;;;;;;;5124541;27;20042;-74
2021/12/01 11:39:59;;;;;;;2.38;0.80;;;;;;;;;;5122125;27;20114;-73
2021/12/01 11:42:25;;;;;;;3.92;0.98;;;;;;;;;;5142040;27;20039;-75
2021/12/01 11:44:51;;;;;;;5.40;1.23;;;;;;;;;;5122074;27;20122;-76
2021/12/01 11:47:18;;;;;;;3.67;1.08;;;19.10;99.90;;;;;;5106189;27;20118;-74
2021/12/01 11:49:44;;;;;;;2.15;0.90;;;;;;;;;;5123644;27;20035;-71
2021/12/01 11:52:10;;;;;;;3.35;1.08;;;;;;;;;;5119084;28;20061;-72
2021/12/01 11:54:44;;;;;;;3.05;0.90;;;19.10;99.90;;;;;;5131486;28;20047;-70
2021/12/01 11:57:11;;;;;;;3.72;0.93;;;19.10;99.90;;;;;;5123343;27;20035;-73
2021/12/01 11:59:38;;;;;;;3.65;0.70;;;19.10;99.90;;;;;;5120994;27;20051;-76
2021/12/01 12:02:19;;;;;;;2.13;0.77;;;19.10;99.90;;;;;;5110781;27;20363;-74
2021/12/01 12:04:47;;;;;;;2.55;0.80;;;18.30;99.90;;;;;;5134302;27;20046;-71
2021/12/01 12:07:21;;;;;;;2.40;0.80;;;19.10;99.90;;;;;;5133386;27;20047;-74
2021/12/01 12:10:22;;;;;;;2.67;1.00;;;19.10;99.90;;;;;;5134506;27;20076;-69
2021/12/01 12:13:03;;;;;;;2.47;0.90;;;19.10;99.90;;;;;;5151221;27;20452;-73
2021/12/01 12:15:54;;;;;;;1.92;0.60;;;19.10;99.90;;;;;;5123823;28;20051;-73
2021/12/01 12:18:52;;;;;;;2.05;0.90;;;19.10;99.90;;;;;;5113086;28;20050;-73
2021/12/01 12:21:24;;;;;;;2.55;0.70;;;19.10;99.90;;;;;;5076495;28;20047;-74
2021/12/01 12:23:51;;;;;;;3.03;0.98;;;;;;;;;;5113661;28;20475;-74
2021/12/01 12:26:32;;;;;;;4.10;1.00;;;19.20;99.90;;;;;;5096216;28;20051;-71
2021/12/01 12:29:16;;;;;;;2.33;0.98;;;19.30;99.90;;;;;;5130355;28;20090;-71
2021/12/01 12:31:44;;;;;;;3.33;1.10;;;19.10;99.90;;;;;;5091227;28;20047;-70
2021/12/01 12:34:21;;;;;;;3.08;0.90;;;19.10;99.90;;;;;;5098858;28;20117;-74
2021/12/01 12:36:57;;;;;;;3.88;1.00;;;19.10;99.90;;;;;;5082442;28;20502;-73
2021/12/01 12:39:25;;;;;;;3.40;0.80;;;19.10;99.90;;;;;;5098747;28;20054;-73
2021/12/01 12:41:54;;;;;;;2.72;0.82;;;19.10;99.90;;;;;;5098370;28;20652;-74
2021/12/01 12:44:34;;;;;;;2.50;0.95;;;19.10;99.90;;;;;;5081508;28;20356;-71
2021/12/01 12:47:14;;;;;;;2.90;0.70;;;19.10;99.90;;;;;;5106382;27;20558;-75
2021/12/01 12:49:53;;;;;;;3.40;0.70;;;19.10;99.90;;;;;;5116792;27;20039;-74
2021/12/01 12:52:25;;;;;;;2.42;0.88;;;19.10;99.90;;;;;;5137505;27;20475;-73
2021/12/01 12:54:55;;;;;;;3.17;0.95;;;19.20;99.90;;;;;;5136866;27;20490;-73
2021/12/01 12:57:22;;;;;;;2.50;0.80;;;19.20;99.90;;;;;;5118418;27;20043;-73
2021/12/01 12:59:48;;;;;;;4.60;0.80;;;;;;;;;;5119239;27;20055;-71
2021/12/01 13:02:14;;;;;;;2.05;0.73;;;19.20;99.90;;;;;;5118434;27;20047;-73
2021/12/01 13:04:52;;;;;;;1.75;0.68;;;19.20;99.90;;;;;;5136934;27;20054;-73
2021/12/01 13:07:34;;;;;;;5.30;0.95;;;19.20;99.90;;;;;;5101844;27;20082;-73
2021/12/01 13:10:10;;;;;;;2.33;0.90;;;19.10;99.90;;;;;;5101558;27;20043;-71
2021/12/01 13:13:18;;;;;;;5.75;1.00;;;19.20;99.90;;;;;;5136918;27;20421;-74
2021/12/01 13:15:47;;;;;;;3.45;0.93;;;19.20;99.90;;;;;;5136751;27;20039;-71
2021/12/01 13:18:14;;;;;;;2.70;0.80;;;19.20;99.90;;;;;;5101068;27;20122;-73
2021/12/01 13:20:47;;;;;;;1.90;0.75;;;19.10;99.90;;;;;;5118822;27;20051;-75
2021/12/01 13:23:25;;;;;;;2.63;0.80;;;19.10;99.90;;;;;;5119384;27;20055;-72
2021/12/01 13:26:04;;;;;;;3.03;1.00;;;19.20;99.90;;;;;;5118725;27;20118;-74
2021/12/01 13:28:52;;;;;;;3.00;0.85;;;19.20;99.90;;;;;;5118318;27;20050;-75
2021/12/01 13:31:22;;;;;;;2.38;0.80;;;19.20;99.90;;;;;;5118112;27;20042;-68
2021/12/01 13:34:07;;;;;;;1.80;0.70;;;19.10;99.90;;;;;;5136240;27;20051;-73
2021/12/01 13:37:07;;;;;;;2.95;0.98;;;19.10;99.90;;;;;;5099931;27;20051;-76
2021/12/01 13:39:37;;;;;;;2.55;0.82;;;19.10;99.90;;;;;;5060479;28;20147;-74
2021/12/01 13:42:16;;;;;;;4.38;1.67;;;19.10;99.90;;;;;;5086282;27;20103;-71
2021/12/01 13:44:44;;;;;;;7.65;1.10;;;19.10;99.90;;;;;;5097271;28;20426;-72
2021/12/01 13:47:21;;;;;;;4.57;1.55;;;19.10;99.90;;;;;;5115558;28;20047;-73
2021/12/01 13:49:53;;;;;;;3.63;1.10;;;19.10;99.90;;;;;;5097842;28;20043;-73
2021/12/01 13:52:44;;;;;;;5.03;1.20;;;19.10;99.90;;;;;;5097388;28;20073;-72
2021/12/01 13:55:15;;;;;;;3.72;1.20;;;19.10;99.90;;;;;;5115739;28;20043;-72
2021/12/01 13:57:45;;;;;;;2.95;0.98;;;19.10;99.90;;;;;;5098335;28;20067;-73
2021/12/01 14:00:12;;;;;;;3.40;1.13;;;19.10;99.90;;;;;;5099761;28;20517;-72
2021/12/01 14:02:38;;;;;;;3.42;1.08;;;19.10;99.90;;;;;;5080368;28;20051;-72
2021/12/01 14:05:05;;;;;;;4.30;1.30;;;19.10;99.90;;;;;;5097335;28;20085;-71
2021/12/01 14:07:41;;;;;;;3.47;1.38;;;19.10;99.90;;;;;;5115155;28;20048;-72
2021/12/01 14:10:37;;;;;;;2.80;1.00;;;19.10;99.90;;;;;;5114803;28;20594;-71
2021/12/01 14:13:04;;;;;;;5.70;1.07;;;19.20;99.90;;;;;;5115119;28;20054;-70
2021/12/01 14:15:34;;;;;;;3.17;1.10;;;19.10;99.90;;;;;;5124010;27;20061;-70
2021/12/01 14:18:01;;;;;;;6.18;1.30;;;19.10;99.90;;;;;;5136138;27;20103;-71
2021/12/01 14:20:27;;;;;;;4.47;1.23;;;19.10;99.90;;;;;;5135263;27;20051;-73
2021/12/01 14:22:55;;;;;;;3.65;1.20;;;19.10;99.90;;;;;;5135492;27;20106;-71
2021/12/01 14:25:21;;;;;;;5.35;1.25;;;19.10;99.90;;;;;;5135461;27;20143;-73
2021/12/01 14:28:01;;;;;;;5.47;1.50;;;19.10;99.90;;;;;;5135322;27;20051;-75
2021/12/01 14:30:27;;;;;;;5.15;1.40;;;19.00;99.90;;;;;;5116981;27;20114;-71
2021/12/01 14:32:53;;;;;;;7.22;1.30;;;19.00;99.90;;;;;;5116888;27;20127;-70
2021/12/01 14:35:21;;;;;;;6.50;1.50;;;19.00;99.90;;;;;;5117672;27;20420;-69
2021/12/01 14:37:47;;;;;;;5.60;1.58;;;19.00;99.90;;;;;;5134911;27;20518;-70
2021/12/01 14:40:15;;;;;;;5.25;1.70;;;18.80;99.90;;;;;;5134916;27;20072;-71
2021/12/01 14:42:49;;;;;;;5.88;1.75;;;18.90;99.90;;;;;;5117226;27;20129;-70
2021/12/01 14:45:17;;;;;;;3.83;1.40;;;18.80;99.90;;;;;;5135659;27;20356;-71
2021/12/01 14:48:06;;;;;;;4.97;1.50;;;18.80;99.90;;;;;;5135253;27;20336;-71
2021/12/01 14:50:47;;;;;;;5.60;1.60;;;18.80;99.90;;;;;;5134728;27;20039;-74
2021/12/01 14:53:15;;;;;;;4.55;1.38;;;18.80;99.90;;;;;;5134592;27;20047;-70
2021/12/01 14:55:44;;;;;;;5.88;1.40;;;18.80;99.90;;;;;;5134641;27;20183;-70
2021/12/01 14:58:12;;;;;;;5.40;1.50;;;18.70;99.90;;;;;;5116749;27;20047;-70
2021/12/01 15:00:41;;;;;;;4.53;1.50;;;18.70;99.90;;;;;;5135112;27;20046;-69
2021/12/01 15:03:20;;;;;;;6.10;1.45;;;18.70;99.90;;;;;;5134780;27;20042;-69
2021/12/01 15:05:57;;;;;;;3.42;1.40;;;18.70;99.90;;;;;;5135675;27;20122;-69
2021/12/01 15:08:27;;;;;;;;;;;18.70;99.90;;;;;;5135178;27;20479;-69
2021/12/01 15:11:09;;;;;;;3.83;1.08;;;18.60;99.90;;;;;;5117308;28;20278;-69
2021/12/01 15:13:43;;;;;;;4.78;1.30;;;18.60;99.90;;;;;;5135182;27;20368;-69
2021/12/01 15:16:26;;;;;;;5.28;1.40;;;18.60;99.90;;;;;;5134565;27;20053;-68
2021/12/01 15:19:13;;;;;;;4.95;1.50;;;18.60;99.90;;;;;;5134568;28;20047;-68
2021/12/01 15:21:50;;;;;;;4.75;1.05;;;18.60;99.90;;;;;;5115888;28;20062;-69
2021/12/01 15:24:21;;;;;;;4.88;1.45;;;18.50;99.90;;;;;;5134522;28;20047;-70
2021/12/01 15:26:50;;;;;;;3.90;1.35;;;18.50;99.90;;;;;;5101123;28;20480;-70
2021/12/01 15:29:24;;;;;;;6.80;1.48;;;18.50;99.90;;;;;;5086680;28;20494;-70
2021/12/01 15:31:56;;;;;;;4.05;1.35;;;18.50;99.90;;;;;;5124111;28;20047;-70
2021/12/01 15:34:32;;;;;;;5.55;1.52;;;18.50;99.90;;;;;;5130176;28;20047;-73
2021/12/01 15:36:58;;;;;;;;;;;18.50;99.90;;;;;;5116829;28;20179;-73
2021/12/01 15:39:26;;;;;;;4.75;1.35;;;18.40;99.90;;;;;;5134314;28;20424;-73
2021/12/01 15:41:57;;;;;;;4.55;1.25;;;18.40;99.90;;;;;;5115973;28;20118;-74
2021/12/01 15:44:24;;;;;;;3.78;1.20;;;18.40;99.90;;;;;;5134428;28;20059;-70
2021/12/01 15:46:50;;;;;;;4.43;1.40;;;18.40;99.90;;;;;;5134346;28;20043;-70
2021/12/01 15:49:17;;;;;;;4.30;1.27;;;18.40;99.90;;;;;;5134919;28;20039;-70
2021/12/01 15:51:43;;;;;;;3.60;1.20;;;18.40;99.90;;;;;;5134262;27;20054;-71
2021/12/01 15:54:09;;;;;;;5.43;1.50;;;18.40;99.90;;;;;;5117000;28;20362;-69
2021/12/01 15:56:37;;;;;;;4.93;1.58;;;18.40;99.90;;;;;;5134314;28;20051;-71
2021/12/01 15:59:03;;;;;;;4.40;1.30;;;18.40;99.90;;;;;;5134842;28;20047;-71
2021/12/01 16:01:29;;;;;;;3.90;1.23;;;18.40;99.90;;;;;;5134591;27;20046;-71
2021/12/01 16:03:55;;;;;;;4.80;1.58;;;18.40;99.90;;;;;;5134233;28;20110;-71
2021/12/01 16:06:20;;;;;;;;;;;18.40;99.90;;;;;;5134607;27;20054;-72
2021/12/01 16:08:48;;;;;;;2.85;1.10;;;18.30;99.90;;;;;;5137482;27;20430;-74
2021/12/01 16:11:15;;;;;;;4.47;1.50;;;18.30;99.90;;;;;;5108087;27;20114;-74
2021/12/01 16:13:42;;;;;;;3.47;1.25;;;18.40;99.90;;;;;;5108780;27;20057;-72
2021/12/01 16:16:08;;;;;;;4.35;1.80;;;18.30;99.90;;;;;;5110090;27;20044;-72
2021/12/01 16:18:34;;;;;;;4.00;1.35;;;18.30;99.90;;;;;;5107742;27;20085;-70
2021/12/01 16:21:01;;;;;;;4.47;1.30;;;18.30;99.90;;;;;;5108924;27;20058;-71
2021/12/01 16:23:28;;;;;;;3.92;1.40;;;18.30;99.90;;;;;;5127563;27;20051;-73
2021/12/01 16:25:56;;;;;;;3.55;1.30;;;18.30;99.90;;;;;;5125915;27;20041;-72
2021/12/01 16:28:23;;;;;;;4.10;1.35;;;18.30;99.90;;;;;;5109146;27;20485;-73
2021/12/01 16:30:49;;;;;;;4.53;1.42;;;18.30;99.90;;;;;;5109259;27;20048;-72
2021/12/01 16:33:15;;;;;;;3.67;1.05;;;18.30;99.90;;;;;;5107627;27;20071;-72
2021/12/01 16:35:41;;;;;;;3.22;1.13;;;18.30;99.90;;;;;;5126349;27;20103;-73
2021/12/01 16:38:45;;;;;;;;;;;18.30;99.90;;;;;;5108711;27;20490;-71
2021/12/01 16:41:11;;;;;;;3.13;1.58;;;18.30;99.90;;;;;;5064252;28;19928;-71
2021/12/01 16:43:37;;;;;;;3.85;1.65;;;18.30;99.90;;;;;;5062412;28;20088;-70
2021/12/01 16:46:03;;;;;;;;;;;18.30;99.90;;;;;;5093460;27;20059;-74
2021/12/01 16:48:29;;;;;;;7.63;2.40;;;16.80;99.90;;;;;;5109049;27;19920;-73
2021/12/01 16:50:55;;;;;;;7.75;2.33;;;18.30;99.90;;;;;;5125359;27;20042;-70
2021/12/01 16:53:21;;;;;;;5.63;2.05;;;18.20;99.90;;;;;;5108810;27;20491;-73
2021/12/01 16:55:47;;;;;;;;;;;18.20;99.90;;;;;;5127350;27;20047;-72
2021/12/01 16:58:12;;;;;;;5.35;2.33;;;18.20;99.90;;;;;;5107125;27;19920;-71
2021/12/01 17:00:58;;;;;;;4.88;2.35;;;18.10;99.90;;;;;;5126963;27;20129;-68
2021/12/01 17:03:29;;;;;;;5.05;2.17;;;18.20;99.90;;;;;;5127355;27;20474;-69
2021/12/01 17:06:00;;;;;;;6.30;2.20;;;18.20;99.90;;;;;;5127264;27;20043;-69
2021/12/01 17:11:02;;;;;;;6.05;2.10;;;18.10;99.90;;;;;;5127113;27;20531;-70
2021/12/01 17:13:29;;;;;;;6.22;2.33;;;18.20;99.90;;;;;;5126695;27;20044;-68
2021/12/01 17:15:56;;;;;;;7.97;2.40;;;18.10;99.90;;;;;;5125584;27;20039;-68
2021/12/01 17:18:23;;;;;;;5.03;1.83;;;18.10;99.90;;;;;;5126126;27;20043;-68
2021/12/01 17:20:50;;;;;;;4.82;2.00;;;18.10;99.90;;;;;;5126082;27;20484;-69
2021/12/01 17:23:19;;;;;;;5.32;2.28;;;18.10;99.90;;;;;;5124771;27;20093;-69
2021/12/01 17:25:45;;;;;;;4.05;1.90;;;18.10;99.90;;;;;;5125749;27;20039;-69
2021/12/01 17:28:11;;;;;;;;;;;18.10;99.90;;;;;;5108877;27;20143;-70
2021/12/01 17:33:29;;;;;;;6.35;2.17;;;18.00;99.90;;;;;;5104424;27;20047;-68
2021/12/01 17:35:59;;;;;;;6.30;2.00;;;18.00;99.90;;;;;;5126680;27;20510;-70
2021/12/01 17:38:29;;;;;;;4.32;1.90;;;18.00;99.90;;;;;;5125911;27;20048;-69
2021/12/01 17:40:56;;;;;;;5.13;1.92;;;18.00;99.90;;;;;;5124282;27;20039;-68
2021/12/01 17:43:26;;;;;;;5.50;1.80;;;17.90;99.90;;;;;;5107370;27;20371;-69
2021/12/01 17:45:52;;;;;;;4.57;2.03;;;17.90;99.90;;;;;;5126401;27;20047;-68
2021/12/01 17:48:20;;;;;;;5.78;1.88;;;17.90;99.90;;;;;;5124654;27;20442;-67
2021/12/01 17:50:46;;;;;;;4.78;1.83;;;18.00;99.90;;;;;;5106930;27;20054;-67
2021/12/01 17:53:11;;;;;;;;;;;17.90;99.90;;;;;;5126749;27;20405;-68
2021/12/01 17:55:38;;;;;;;4.10;1.75;;;17.90;99.90;;;;;;5124615;27;20018;-68
2021/12/01 17:58:06;;;;;;;5.25;1.92;;;17.90;99.90;;;;;;5107230;27;20126;-68
2021/12/01 18:00:34;;;;;;;4.53;1.70;;;17.90;99.90;;;;;;5125761;27;20499;-73
2021/12/01 18:03:00;;;;;;;4.93;1.77;;;17.90;99.90;;;;;;5106421;27;20027;-70
2021/12/01 18:05:26;;;;;;;;;;;17.90;99.90;;;;;;5107170;27;20115;-69
2021/12/01 18:07:51;;;;;;;5.07;1.52;;;17.90;99.90;;;;;;5126143;27;19927;-69
2021/12/01 18:10:17;;;;;;;;;;;17.90;99.90;;;;;;5126649;27;20031;-71
2021/12/01 18:12:43;;;;;;;4.07;1.60;;;17.90;99.90;;;;;;5124696;27;20375;-70
2021/12/01 18:15:11;;;;;;;5.05;1.67;;;19.70;99.90;;;;;;5125051;27;20047;-69
2021/12/01 18:17:37;;;;;;;4.05;1.55;;;18.00;99.90;;;;;;5107839;27;20051;-69
2021/12/01 18:20:05;;;;;;;;;;;18.10;99.90;;;;;;5125029;27;20364;-69
2021/12/01 18:22:30;;;;;;;3.10;1.50;;;18.10;99.90;;;;;;5123843;27;19919;-71
2021/12/01 18:24:56;;;;;;;;;;;18.10;99.90;;;;;;5126148;27;20047;-68
2021/12/01 18:27:22;;;;;;;4.70;1.30;;;18.10;99.90;;;;;;5124422;27;20283;-70
2021/12/01 18:29:47;;;;;;;;;;;18.10;99.90;;;;;;5124045;27;20058;-69
2021/12/01 18:32:13;;;;;;;2.95;1.58;;;18.10;99.90;;;;;;5107501;27;20419;-69
2021/12/01 18:34:39;;;;;;;5.05;1.30;;;18.10;99.90;;;;;;5105807;27;20422;-69
2021/12/01 18:37:05;;;;;;;3.45;1.25;;;18.20;99.90;;;;;;5124200;27;20368;-69
2021/12/01 18:39:31;;;;;;;;;;;18.20;99.90;;;;;;5125793;27;20079;-70
2021/12/01 18:41:58;;;;;;;2.97;1.40;;;18.20;99.90;;;;;;5123170;27;20298;-69
2021/12/01 18:44:28;;;;;;;5.20;1.20;;;18.20;99.90;;;;;;5124498;27;20047;-69
2021/12/01 18:46:54;;;;;;;4.63;1.50;;;18.30;99.90;;;;;;5125409;27;20039;-69
2021/12/01 18:49:20;;;;;;;3.75;1.10;;;18.30;99.90;;;;;;5105610;27;20047;-69
2021/12/01 18:51:45;;;;;;;;;;;18.30;99.90;;;;;;5106359;27;20039;-68
2021/12/01 18:54:11;;;;;;;2.20;1.10;;;18.30;99.90;;;;;;5125163;27;19958;-70
2021/12/01 18:56:37;;;;;;;;;;;18.30;99.90;;;;;;5125760;27;20395;-70
2021/12/01 18:59:03;;;;;;;7.45;1.40;;;18.30;99.90;;;;;;5129019;27;19919;-70
2021/12/01 19:01:29;;;;;;;5.03;1.20;;;18.30;99.90;;;;;;5116447;27;20047;-70
2021/12/01 19:03:55;;;;;;;;;;;18.30;99.90;;;;;;5135220;27;20134;-70
2021/12/01 19:06:20;;;;;;;3.88;1.10;;;18.30;99.90;;;;;;5116742;28;19926;-70
2021/12/01 19:08:46;;;;;;;3.72;1.25;;;18.30;99.90;;;;;;5111798;27;20509;-70
2021/12/01 19:11:15;;;;;;;2.42;1.05;;;18.30;99.90;;;;;;5105843;28;20123;-69
2021/12/01 19:13:41;;;;;;;3.13;1.30;;;18.30;99.90;;;;;;5104739;28;20043;-68
2021/12/01 19:16:07;;;;;;;;;;;18.30;99.90;;;;;;5127561;27;20045;-69
2021/12/01 19:18:34;;;;;;;2.80;1.30;;;18.40;99.90;;;;;;5134675;27;19920;-69
2021/12/01 19:21:00;;;;;;;2.53;1.10;;;18.40;99.90;;;;;;5133866;28;20062;-69
2021/12/01 19:23:25;;;;;;;2.60;1.00;;;18.50;99.90;;;;;;5134691;28;20399;-69
2021/12/01 19:25:51;;;;;;;;;;;18.40;99.90;;;;;;5135017;28;20046;-69
2021/12/01 19:28:19;;;;;;;2.05;1.08;;;18.50;99.90;;;;;;5116123;28;19926;-69
2021/12/01 19:30:46;;;;;;;2.15;1.20;;;18.50;99.90;;;;;;5134551;28;20394;-69
2021/12/01 19:33:12;;;;;;;1.60;0.85;;;18.50;99.90;;;;;;5134604;28;20051;-69
2021/12/01 19:35:39;;;;;;;1.83;1.00;;;18.60;99.90;;;;;;5135014;28;20054;-69
2021/12/01 19:38:06;;;;;;;1.63;0.90;;;18.60;99.90;;;;;;5116574;28;20103;-68
2021/12/01 19:40:32;;;;;;;1.63;1.00;;;18.70;99.90;;;;;;5134297;28;20050;-68
2021/12/01 19:42:58;;;;;;;2.38;1.02;;;18.60;99.90;;;;;;5136967;27;20047;-68
2021/12/01 19:45:26;;;;;;;2.92;1.05;;;18.70;99.90;;;;;;5139087;27;20130;-68
2021/12/01 19:47:53;;;;;;;2.38;1.08;;;18.70;99.90;;;;;;5138599;27;20053;-68
2021/12/01 19:50:20;;;;;;;2.00;0.90;;;18.70;99.90;;;;;;5138508;27;20112;-68
2021/12/01 19:52:48;;;;;;;2.17;0.98;;;18.70;99.90;;;;;;5138347;27;20141;-68
2021/12/01 19:55:17;;;;;;;2.10;0.90;;;18.70;99.90;;;;;;5138418;27;20051;-69
2021/12/01 19:57:43;;;;;;;1.77;1.00;;;18.70;99.90;;;;;;5138355;27;20051;-68
2021/12/01 20:00:13;;;;;;;1.60;0.80;;;18.70;99.90;;;;;;5138288;27;20043;-68
2021/12/01 20:02:39;;;;;;;2.40;0.90;;;18.70;99.90;;;;;;5138225;27;20051;-69
2021/12/01 20:05:07;;;;;;;2.15;1.02;;;18.80;99.90;;;;;;5129088;27;20069;-69
2021/12/01 20:07:38;;;;;;;2.25;0.90;;;18.80;99.90;;;;;;5128525;27;20118;-68
2021/12/01 20:10:06;;;;;;;2.67;0.93;;;18.80;99.90;;;;;;5128236;27;20487;-68
2021/12/01 20:12:36;;;;;;;1.58;0.70;;;18.80;99.90;;;;;;5128226;27;20039;-69
2021/12/01 20:15:04;;;;;;;1.85;1.00;;;18.80;99.90;;;;;;5112425;27;20054;-69
2021/12/01 20:17:30;;;;;;;1.23;0.73;;;18.80;99.90;;;;;;5099227;28;20047;-69
2021/12/01 20:19:56;;;;;;;1.38;0.70;;;18.80;99.90;;;;;;5117259;28;20043;-70
2021/12/01 20:22:24;;;;;;;1.02;0.57;;;18.90;99.90;;;;;;5117177;28;20124;-69
2021/12/01 20:24:51;;;;;;;1.77;0.90;;;18.90;99.90;;;;;;5125621;27;20047;-69
2021/12/01 20:27:17;;;;;;;1.40;0.70;;;18.90;99.90;;;;;;5127398;27;20043;-68
2021/12/01 20:29:43;;;;;;;2.15;0.80;;;18.90;99.90;;;;;;5132717;27;20438;-69
2021/12/01 20:32:08;;;;;;;;;;;18.90;99.90;;;;;;5137379;27;20047;-70
2021/12/01 20:34:36;;;;;;;1.67;0.70;;;18.90;99.90;;;;;;5138233;27;19975;-69
2021/12/01 20:37:02;;;;;;;1.60;0.80;;;18.90;99.90;;;;;;5138455;27;20098;-69
2021/12/01 20:39:29;;;;;;;1.45;0.70;;;19.00;99.90;;;;;;5137789;27;20065;-69
2021/12/01 20:41:58;;;;;;;1.90;0.90;;;19.00;99.90;;;;;;5137468;27;20050;-69
2021/12/01 20:44:27;;;;;;;1.27;0.70;;;19.00;99.90;;;;;;5137453;27;20478;-69
2021/12/01 20:57:51;;;;;;;0.90;0.60;;;19.00;99.90;;;;;;5119363;27;20062;-69
2021/12/01 21:03:02;;;;;;;1.67;0.70;;;19.00;99.90;;;;;;5137158;27;20059;-68
2021/12/01 21:05:29;;;;;;;1.48;0.88;;;19.00;99.90;;;;;;5118783;27;20051;-69
2021/12/01 21:07:55;;;;;;;1.40;0.65;;;19.00;99.90;;;;;;5118956;27;20075;-70
2021/12/01 21:10:23;;;;;;;1.92;0.75;;;19.00;99.90;;;;;;5118576;27;20581;-69
2021/12/01 21:12:49;;;;;;;1.38;0.70;;;19.00;99.90;;;;;;5136864;27;20047;-69
2021/12/01 21:15:17;;;;;;;1.40;0.70;;;19.00;99.90;;;;;;5112267;28;20058;-69
2021/12/01 21:17:42;;;;;;;1.88;0.70;;;19.10;99.90;;;;;;5098800;28;20372;-69
2021/12/01 21:20:09;;;;;;;1.15;0.70;;;19.00;99.90;;;;;;5116175;28;20044;-69
2021/12/01 21:22:39;;;;;;;1.45;0.70;;;19.10;99.90;;;;;;5116362;28;20052;-68
2021/12/01 21:25:06;;;;;;;1.92;0.60;;;19.10;99.90;;;;;;5098407;28;20390;-69
2021/12/01 21:27:36;;;;;;;1.73;0.70;;;19.00;99.90;;;;;;5098163;28;20056;-69
2021/12/01 21:30:05;;;;;;;2.10;0.80;;;19.10;99.90;;;;;;5116051;28;20047;-69
2021/12/01 21:32:32;;;;;;;0.90;0.63;;;19.10;99.90;;;;;;5116395;28;20039;-69
2021/12/01 21:34:58;;;;;;;0.75;0.50;;;19.00;99.90;;;;;;5115897;28;20048;-69
2021/12/01 21:37:25;;;;;;;1.45;0.52;;;19.10;99.90;;;;;;5124119;27;20036;-68
2021/12/01 21:39:53;;;;;;;1.50;0.70;;;19.00;99.90;;;;;;5124657;27;20116;-69
2021/12/01 21:42:20;;;;;;;1.88;0.70;;;19.00;99.90;;;;;;5115011;27;20498;-68
2021/12/01 21:44:47;;;;;;;0.88;0.60;;;19.00;99.90;;;;;;5134879;27;20074;-70
2021/12/01 21:47:15;;;;;;;1.67;0.60;;;19.10;99.90;;;;;;5098645;27;20054;-72
2021/12/01 21:49:40;;;;;;;1.67;0.52;;;19.10;99.90;;;;;;5128313;27;20035;-75
